createdAt,value
2023-03-01T00:01:48.684Z,91.70
2023-03-01T00:04:17.296Z,91.60
2023-03-01T00:06:47.565Z,91.70
2023-03-01T00:09:16.519Z,91.70
2023-03-01T00:11:46.497Z,91.80
2023-03-01T00:14:17.249Z,91.90
2023-03-01T00:16:47.324Z,92.00
2023-03-01T00:19:18.354Z,92.00
2023-03-01T00:21:48.404Z,92.00
2023-03-01T00:24:17.187Z,92.00
2023-03-01T00:26:45.777Z,91.90
2023-03-01T00:29:14.106Z,91.90
2023-03-01T00:31:42.424Z,91.80
2023-03-01T00:34:12.004Z,91.70
2023-03-01T00:36:40.873Z,91.90
2023-03-01T00:39:15.803Z,91.90
2023-03-01T00:41:44.384Z,92.10
2023-03-01T00:44:13.453Z,91.90
2023-03-01T00:46:41.801Z,92.00
2023-03-01T00:49:10.125Z,91.80
2023-03-01T00:51:38.547Z,91.90
2023-03-01T00:54:06.893Z,91.90
2023-03-01T00:56:36.676Z,91.90
2023-03-01T00:59:05.169Z,92.10
2023-03-01T01:01:34.002Z,91.90
2023-03-01T01:04:05.829Z,92.00
2023-03-01T01:06:37.304Z,92.20
2023-03-01T01:09:08.654Z,92.20
2023-03-01T01:11:38.489Z,92.10
2023-03-01T01:14:06.842Z,91.90
2023-03-01T01:16:35.719Z,91.90
2023-03-01T01:19:04.532Z,92.10
2023-03-01T01:21:33.555Z,92.20
2023-03-01T01:24:02.081Z,92.20
2023-03-01T01:26:33.462Z,92.00
2023-03-01T01:29:05.671Z,92.20
2023-03-01T01:31:35.015Z,92.30
2023-03-01T01:34:23.430Z,92.20
2023-03-01T01:36:54.906Z,92.30
2023-03-01T01:39:23.607Z,92.40
2023-03-01T01:41:52.251Z,92.30
2023-03-01T01:44:24.497Z,91.70
2023-03-01T01:46:58.038Z,92.40
2023-03-01T01:49:34.076Z,92.50
2023-03-01T01:52:13.959Z,92.60
2023-03-01T01:54:46.812Z,92.60
2023-03-01T01:57:21.338Z,92.70
2023-03-01T01:59:56.963Z,92.50
2023-03-01T02:02:26.008Z,92.50
2023-03-01T02:05:06.040Z,92.40
2023-03-01T02:07:35.425Z,92.50
2023-03-01T02:10:05.083Z,92.10
2023-03-01T02:12:34.459Z,92.30
2023-03-01T02:15:07.622Z,92.50
2023-03-01T02:17:36.951Z,92.40
2023-03-01T02:20:17.021Z,92.50
2023-03-01T02:22:47.569Z,92.60
2023-03-01T02:25:32.630Z,92.60
2023-03-01T02:28:13.131Z,92.60
2023-03-01T02:31:03.236Z,92.60
2023-03-01T02:33:33.849Z,92.30
2023-03-01T02:36:06.371Z,92.60
2023-03-01T02:38:35.346Z,92.60
2023-03-01T02:41:06.405Z,92.50
2023-03-01T02:43:36.374Z,92.50
2023-03-01T02:46:15.089Z,92.50
2023-03-01T02:48:46.253Z,92.60
2023-03-01T02:51:35.237Z,92.70
2023-03-01T02:54:17.536Z,93.10
2023-03-01T02:56:49.240Z,92.70
2023-03-01T02:59:23.333Z,92.50
2023-03-01T03:01:53.707Z,92.50
2023-03-01T03:04:22.906Z,92.10
2023-03-01T03:06:53.265Z,92.40
2023-03-01T03:09:21.870Z,92.50
2023-03-01T03:11:50.566Z,92.30
2023-03-01T03:14:19.643Z,92.40
2023-03-01T03:16:53.190Z,92.30
2023-03-01T03:19:22.278Z,92.60
2023-03-01T03:21:50.616Z,92.50
2023-03-01T03:24:19.437Z,92.30
2023-03-01T03:26:47.814Z,92.40
2023-03-01T03:29:16.188Z,92.20
2023-03-01T03:31:44.559Z,92.50
2023-03-01T03:34:19.069Z,92.40
2023-03-01T03:36:47.507Z,92.60
2023-03-01T03:39:15.885Z,92.50
2023-03-01T03:41:44.168Z,92.30
2023-03-01T03:44:12.510Z,92.50
2023-03-01T03:46:40.817Z,92.60
2023-03-01T03:49:09.230Z,92.50
2023-03-01T03:51:38.966Z,92.40
2023-03-01T03:54:07.329Z,92.60
2023-03-01T03:56:36.009Z,92.30
2023-03-01T03:59:04.333Z,92.40
2023-03-01T04:01:32.659Z,92.40
2023-03-01T04:04:05.114Z,92.60
2023-03-01T04:06:33.655Z,92.70
2023-03-01T04:09:04.082Z,92.50
2023-03-01T04:11:32.473Z,92.60
2023-03-01T04:14:01.257Z,92.50
2023-03-01T04:16:30.435Z,92.50
2023-03-01T04:19:00.725Z,92.40
2023-03-01T04:21:29.122Z,92.80
2023-03-01T04:23:57.785Z,92.80
2023-03-01T04:26:28.019Z,92.80
2023-03-01T04:28:57.091Z,92.80
2023-03-01T04:31:25.469Z,92.80
2023-03-01T04:33:56.450Z,92.70
2023-03-01T04:36:28.244Z,93.00
2023-03-01T04:38:58.187Z,93.00
2023-03-01T04:41:28.246Z,92.90
2023-03-01T04:43:56.653Z,92.80
2023-03-01T04:46:26.487Z,92.80
2023-03-01T04:48:55.069Z,92.80
2023-03-01T04:51:23.747Z,92.90
2023-03-01T04:53:52.189Z,93.00
2023-03-01T04:56:20.546Z,93.00
2023-03-01T04:58:50.394Z,93.00
2023-03-01T05:01:21.477Z,93.00
2023-03-01T05:03:52.340Z,93.00
2023-03-01T05:06:22.496Z,93.00
2023-03-01T05:08:51.258Z,93.00
2023-03-01T05:11:19.697Z,93.00
2023-03-01T05:13:50.978Z,93.00
2023-03-01T05:16:21.040Z,93.00
2023-03-01T05:18:51.465Z,92.90
2023-03-01T05:21:20.485Z,93.00
2023-03-01T05:23:48.951Z,93.10
2023-03-01T05:26:28.196Z,93.00
2023-03-01T05:29:00.261Z,93.10
2023-03-01T05:31:29.279Z,93.00
2023-03-01T05:33:57.733Z,93.00
2023-03-01T05:36:26.166Z,93.00
2023-03-01T05:38:54.557Z,93.10
2023-03-01T05:41:23.017Z,93.00
2023-03-01T05:43:51.366Z,93.00
2023-03-01T05:46:21.160Z,93.10
2023-03-01T05:48:49.667Z,93.10
2023-03-01T05:51:18.685Z,93.00
2023-03-01T05:53:47.217Z,92.90
2023-03-01T05:56:15.719Z,92.90
2023-03-01T05:58:44.270Z,93.00
2023-03-01T06:01:14.884Z,93.10
2023-03-01T06:03:44.951Z,93.10
2023-03-01T06:06:13.452Z,93.20
2023-03-01T06:08:41.858Z,93.00
2023-03-01T06:11:10.340Z,93.10
2023-03-01T06:13:38.720Z,93.20
2023-03-01T06:16:08.734Z,93.10
2023-03-01T06:18:37.160Z,93.20
2023-03-01T06:21:08.838Z,93.20
2023-03-01T06:23:37.763Z,93.30
2023-03-01T06:26:09.362Z,93.30
2023-03-01T06:28:38.079Z,93.40
2023-03-01T06:31:09.890Z,93.30
2023-03-01T06:33:38.560Z,93.20
2023-03-01T06:36:11.028Z,93.30
2023-03-01T06:38:41.705Z,93.30
2023-03-01T06:41:10.272Z,93.20
2023-03-01T06:43:38.668Z,93.20
2023-03-01T06:46:08.446Z,93.30
2023-03-01T06:48:37.234Z,93.30
2023-03-01T06:51:07.238Z,93.70
2023-03-01T06:53:35.579Z,93.40
2023-03-01T06:56:04.163Z,93.70
2023-03-01T06:58:32.597Z,93.30
2023-03-01T07:01:00.998Z,93.20
2023-03-01T07:03:29.389Z,93.20
2023-03-01T07:05:57.798Z,93.10
2023-03-01T07:08:27.528Z,93.00
2023-03-01T07:10:58.146Z,93.20
2023-03-01T07:13:26.740Z,93.30
2023-03-01T07:15:55.287Z,93.20
2023-03-01T07:18:23.657Z,93.10
2023-03-01T07:20:52.234Z,93.20
2023-03-01T07:23:20.586Z,93.20
2023-03-01T07:25:55.429Z,93.10
2023-03-01T07:28:26.000Z,93.10
2023-03-01T07:30:54.637Z,93.20
2023-03-01T07:33:23.560Z,93.20
2023-03-01T07:35:59.825Z,93.30
2023-03-01T07:38:28.634Z,93.20
2023-03-01T07:41:01.304Z,93.10
2023-03-01T07:43:29.964Z,93.20
2023-03-01T07:46:02.175Z,93.10
2023-03-01T07:48:31.325Z,93.10
2023-03-01T07:51:01.575Z,93.10
2023-03-01T07:53:31.866Z,93.10
2023-03-01T07:56:06.438Z,93.00
2023-03-01T07:58:36.992Z,93.10
2023-03-01T08:01:05.825Z,93.10
2023-03-01T08:03:34.323Z,93.10
2023-03-01T08:06:03.268Z,93.10
2023-03-01T08:08:32.327Z,93.10
2023-03-01T08:11:01.731Z,93.10
2023-03-01T08:13:32.451Z,93.10
2023-03-01T08:16:05.217Z,93.00
2023-03-01T08:18:33.822Z,93.00
2023-03-01T08:21:05.593Z,93.00
2023-03-01T08:23:33.958Z,92.90
2023-03-01T08:26:08.579Z,92.90
2023-03-01T08:28:38.676Z,93.00
2023-03-01T08:31:17.762Z,93.30
2023-03-01T08:33:51.479Z,93.00
2023-03-01T08:36:21.946Z,93.00
2023-03-01T08:38:50.471Z,92.90
2023-03-01T08:41:19.093Z,92.80
2023-03-01T08:43:48.988Z,92.80
2023-03-01T08:46:17.872Z,92.70
2023-03-01T08:48:46.243Z,92.70
2023-03-01T08:51:18.113Z,92.80
2023-03-01T08:53:47.219Z,92.80
2023-03-01T08:56:15.937Z,92.80
2023-03-01T08:58:48.589Z,92.60
2023-03-01T09:01:19.363Z,92.70
2023-03-01T09:03:48.818Z,92.70
2023-03-01T09:06:17.801Z,92.60
2023-03-01T09:08:49.937Z,92.60
2023-03-01T09:11:21.485Z,92.60
2023-03-01T09:13:54.824Z,92.60
2023-03-01T09:16:24.300Z,92.40
2023-03-01T09:18:54.313Z,92.50
2023-03-01T09:21:39.088Z,92.50
2023-03-01T09:24:10.205Z,92.50
2023-03-01T09:26:38.585Z,92.40
2023-03-01T09:29:10.609Z,92.30
2023-03-01T09:31:39.238Z,92.40
2023-03-01T09:34:07.899Z,92.20
2023-03-01T09:36:36.981Z,92.30
2023-03-01T09:39:06.889Z,92.70
2023-03-01T09:41:49.675Z,92.20
2023-03-01T09:44:36.516Z,92.30
2023-03-01T09:47:05.445Z,92.20
2023-03-01T09:49:36.858Z,92.20
2023-03-01T09:52:15.604Z,92.10
2023-03-01T09:54:43.989Z,92.10
2023-03-01T09:57:22.856Z,92.10
2023-03-01T10:00:12.696Z,92.00
2023-03-01T10:02:46.264Z,92.00
2023-03-01T10:05:37.145Z,91.80
2023-03-01T10:08:32.103Z,91.90
2023-03-01T10:11:01.316Z,91.70
2023-03-01T10:13:38.804Z,91.90
2023-03-01T10:16:16.261Z,91.80
2023-03-01T10:18:48.801Z,91.70
2023-03-01T10:21:20.215Z,91.80
2023-03-01T10:23:52.274Z,91.70
2023-03-01T10:26:42.345Z,91.70
2023-03-01T10:29:14.108Z,91.60
2023-03-01T10:31:47.352Z,91.60
2023-03-01T10:34:20.254Z,91.60
2023-03-01T10:36:52.582Z,91.50
2023-03-01T10:39:23.927Z,91.50
2023-03-01T10:42:02.032Z,91.50
2023-03-01T10:44:44.631Z,91.30
2023-03-01T10:47:27.310Z,91.30
2023-03-01T10:50:02.136Z,91.30
2023-03-01T10:52:35.366Z,91.20
2023-03-01T10:55:26.235Z,91.20
2023-03-01T10:58:11.657Z,91.50
2023-03-01T11:00:51.237Z,91.20
2023-03-01T11:03:25.094Z,91.30
2023-03-01T11:06:01.676Z,91.30
2023-03-01T11:08:40.801Z,91.20
2023-03-01T11:11:33.488Z,91.10
2023-03-01T11:14:19.352Z,91.10
2023-03-01T11:17:02.434Z,91.50
2023-03-01T11:19:32.467Z,91.10
2023-03-01T11:22:06.274Z,91.00
2023-03-01T11:24:43.671Z,90.90
2023-03-01T11:27:20.956Z,90.90
2023-03-01T11:29:55.233Z,90.80
2023-03-01T11:32:29.394Z,90.80
2023-03-01T11:35:04.912Z,90.80
2023-03-01T11:37:40.360Z,90.70
2023-03-01T11:40:18.584Z,91.10
2023-03-01T11:42:57.186Z,90.70
2023-03-01T11:45:27.346Z,90.70
2023-03-01T11:48:14.669Z,90.70
2023-03-01T11:50:49.465Z,90.40
2023-03-01T11:53:49.483Z,90.50
2023-03-01T11:56:28.449Z,90.30
2023-03-01T11:59:32.203Z,90.40
2023-03-01T12:02:33.017Z,90.40
2023-03-01T12:05:47.483Z,90.40
2023-03-01T12:08:24.420Z,90.30
2023-03-01T12:11:05.092Z,90.40
2023-03-01T12:14:01.149Z,90.40
2023-03-01T12:16:46.844Z,90.30
2023-03-01T12:19:43.401Z,90.30
2023-03-01T12:22:34.749Z,90.40
2023-03-01T12:25:31.958Z,90.30
2023-03-01T12:28:53.811Z,90.10
2023-03-01T12:31:57.984Z,90.20
2023-03-01T12:34:57.248Z,90.10
2023-03-01T12:37:38.970Z,90.00
2023-03-01T12:40:48.839Z,89.90
2023-03-01T12:43:30.952Z,89.90
2023-03-01T12:46:36.121Z,90.00
2023-03-01T12:49:12.185Z,89.60
2023-03-01T12:51:42.204Z,90.00
2023-03-01T12:54:18.911Z,90.00
2023-03-01T12:56:53.138Z,89.40
2023-03-01T12:59:30.664Z,89.40
2023-03-01T13:02:07.963Z,89.50
2023-03-01T13:04:56.384Z,88.90
2023-03-01T13:07:33.205Z,89.10
2023-03-01T13:10:19.486Z,89.00
2023-03-01T13:13:05.117Z,88.90
2023-03-01T13:15:37.489Z,88.80
2023-03-01T13:18:31.241Z,88.70
2023-03-01T13:21:02.317Z,88.60
2023-03-01T13:23:35.144Z,88.60
2023-03-01T13:26:21.420Z,88.50
2023-03-01T13:28:58.108Z,88.30
2023-03-01T13:32:01.189Z,88.30
2023-03-01T13:34:48.074Z,88.30
2023-03-01T13:37:30.502Z,88.00
2023-03-01T13:40:52.869Z,88.00
2023-03-01T13:43:33.842Z,88.10
2023-03-01T13:46:12.156Z,88.00
2023-03-01T13:48:41.589Z,87.30
2023-03-01T13:51:12.214Z,87.30
2023-03-01T13:53:45.411Z,87.50
2023-03-01T13:56:18.117Z,87.20
2023-03-01T13:58:51.980Z,87.00
2023-03-01T14:01:28.884Z,87.20
2023-03-01T14:03:58.366Z,87.00
2023-03-01T14:06:31.296Z,88.00
2023-03-01T14:09:07.679Z,86.80
2023-03-01T14:12:18.124Z,86.50
2023-03-01T14:14:54.711Z,86.20
2023-03-01T14:17:49.837Z,86.40
2023-03-01T14:20:22.518Z,85.90
2023-03-01T14:22:54.890Z,86.10
2023-03-01T14:25:27.666Z,86.00
2023-03-01T14:28:06.868Z,85.90
2023-03-01T14:30:39.857Z,85.30
2023-03-01T14:33:24.253Z,85.30
2023-03-01T14:36:01.273Z,85.20
2023-03-01T14:38:36.766Z,85.40
2023-03-01T14:41:10.035Z,85.20
2023-03-01T14:43:40.211Z,85.50
2023-03-01T14:46:08.629Z,84.90
2023-03-01T14:48:38.381Z,85.30
2023-03-01T14:51:08.350Z,84.70
2023-03-01T14:53:49.265Z,84.70
2023-03-01T14:56:22.051Z,85.10
2023-03-01T14:58:54.694Z,84.90
2023-03-01T15:01:24.244Z,84.40
2023-03-01T15:03:54.583Z,84.80
2023-03-01T15:06:25.431Z,84.40
2023-03-01T15:08:57.873Z,84.20
2023-03-01T15:11:30.042Z,84.10
2023-03-01T15:13:59.820Z,85.20
2023-03-01T15:16:32.060Z,84.30
2023-03-01T15:19:04.297Z,83.80
2023-03-01T15:21:35.716Z,83.30
2023-03-01T15:24:21.368Z,83.50
2023-03-01T15:26:56.275Z,83.00
2023-03-01T15:29:31.105Z,83.90
2023-03-01T15:32:04.954Z,83.20
2023-03-01T15:34:39.145Z,83.10
2023-03-01T15:37:40.233Z,82.90
2023-03-01T15:40:25.277Z,83.20
2023-03-01T15:42:54.735Z,82.90
2023-03-01T15:45:28.209Z,83.00
2023-03-01T15:47:59.437Z,83.10
2023-03-01T15:50:33.982Z,82.80
2023-03-01T15:53:03.992Z,82.30
2023-03-01T15:55:34.389Z,82.80
2023-03-01T15:58:05.985Z,82.30
2023-03-01T16:00:34.552Z,82.50
2023-03-01T16:03:02.995Z,82.30
2023-03-01T16:05:35.697Z,82.60
2023-03-01T16:08:06.702Z,82.00
2023-03-01T16:10:36.250Z,82.10
2023-03-01T16:13:04.762Z,82.00
2023-03-01T16:15:36.217Z,82.00
2023-03-01T16:18:06.127Z,81.40
2023-03-01T16:20:36.662Z,81.70
2023-03-01T16:23:07.819Z,80.90
2023-03-01T16:25:37.378Z,82.00
2023-03-01T16:28:10.028Z,81.50
2023-03-01T16:30:40.470Z,81.30
2023-03-01T16:33:28.335Z,81.60
2023-03-01T16:36:01.094Z,82.60
2023-03-01T16:38:29.989Z,81.20
2023-03-01T16:40:58.314Z,81.30
2023-03-01T16:43:26.941Z,81.90
2023-03-01T16:45:55.382Z,81.20
2023-03-01T16:48:23.792Z,81.30
2023-03-01T16:51:01.681Z,81.40
2023-03-01T16:53:30.662Z,81.30
2023-03-01T16:56:00.125Z,81.50
2023-03-01T16:58:28.603Z,81.60
2023-03-01T17:00:58.343Z,80.00
2023-03-01T17:03:30.019Z,81.30
2023-03-01T17:06:03.628Z,80.20
2023-03-01T17:08:32.203Z,81.30
2023-03-01T17:11:07.097Z,81.30
2023-03-01T17:13:38.159Z,81.00
2023-03-01T17:16:08.638Z,81.00
2023-03-01T17:18:38.313Z,81.40
2023-03-01T17:21:12.266Z,82.00
2023-03-01T17:23:45.486Z,82.00
2023-03-01T17:26:14.700Z,82.00
2023-03-01T17:28:43.857Z,82.50
2023-03-01T17:31:12.700Z,81.30
2023-03-01T17:33:41.250Z,81.80
2023-03-01T17:36:11.125Z,81.50
2023-03-01T17:38:39.636Z,81.60
2023-03-01T17:41:08.002Z,81.00
2023-03-01T17:43:36.428Z,82.00
2023-03-01T17:46:08.096Z,82.10
2023-03-01T17:48:36.491Z,82.50
2023-03-01T17:51:08.698Z,82.40
2023-03-01T17:53:39.068Z,83.30
2023-03-01T17:56:08.904Z,83.00
2023-03-01T17:58:38.592Z,82.60
2023-03-01T18:01:13.899Z,83.00
2023-03-01T18:03:47.800Z,84.00
2023-03-01T18:06:19.680Z,83.90
2023-03-01T18:08:50.946Z,84.20
2023-03-01T18:11:20.577Z,84.20
2023-03-01T18:13:53.206Z,84.70
2023-03-01T18:16:24.147Z,84.90
2023-03-01T18:18:56.189Z,85.50
2023-03-01T18:21:24.884Z,85.50
2023-03-01T18:23:55.422Z,84.60
2023-03-01T18:26:25.334Z,85.10
2023-03-01T18:28:54.649Z,85.40
2023-03-01T18:31:23.928Z,85.60
2023-03-01T18:33:55.863Z,85.70
2023-03-01T18:36:28.192Z,86.00
2023-03-01T18:38:58.222Z,86.00
2023-03-01T18:41:28.350Z,85.10
2023-03-01T18:43:57.589Z,85.70
2023-03-01T18:46:26.465Z,86.30
2023-03-01T18:48:55.379Z,86.20
2023-03-01T18:51:26.753Z,86.90
2023-03-01T18:53:58.618Z,86.60
2023-03-01T18:56:27.205Z,86.50
2023-03-01T18:58:56.141Z,85.90
2023-03-01T19:01:26.775Z,86.00
2023-03-01T19:03:56.396Z,86.70
2023-03-01T19:06:30.133Z,86.80
2023-03-01T19:09:00.464Z,86.80
2023-03-01T19:11:31.088Z,86.70
2023-03-01T19:14:01.490Z,86.70
2023-03-01T19:16:32.401Z,86.60
2023-03-01T19:19:03.126Z,87.30
2023-03-01T19:21:33.615Z,87.50
2023-03-01T19:24:04.526Z,87.30
2023-03-01T19:26:34.136Z,87.20
2023-03-01T19:29:04.973Z,87.80
2023-03-01T19:31:33.523Z,87.70
2023-03-01T19:34:11.064Z,87.60
2023-03-01T19:36:41.781Z,86.80
2023-03-01T19:39:14.209Z,87.60
2023-03-01T19:41:43.125Z,88.40
2023-03-01T19:44:12.346Z,87.00
2023-03-01T19:46:41.316Z,88.10
2023-03-01T19:49:10.004Z,88.00
2023-03-01T19:51:39.383Z,88.50
2023-03-01T19:54:09.855Z,88.20
2023-03-01T19:56:40.387Z,88.50
2023-03-01T19:59:09.153Z,88.20
2023-03-01T20:01:38.182Z,87.20
2023-03-01T20:04:06.916Z,87.80
2023-03-01T20:06:35.577Z,88.30
2023-03-01T20:09:15.630Z,88.80
2023-03-01T20:11:50.973Z,88.80
2023-03-01T20:14:21.108Z,88.90
2023-03-01T20:16:51.603Z,89.10
2023-03-01T20:19:20.031Z,89.00
2023-03-01T20:21:48.352Z,88.90
2023-03-01T20:24:16.668Z,88.80
2023-03-01T20:26:45.009Z,88.70
2023-03-01T20:29:14.783Z,88.70
2023-03-01T20:31:43.195Z,88.30
2023-03-01T20:34:11.577Z,88.30
2023-03-01T20:36:41.124Z,88.80
2023-03-01T20:39:11.770Z,89.20
2023-03-01T20:41:40.820Z,90.00
2023-03-01T20:44:09.945Z,90.00
2023-03-01T20:46:39.868Z,89.80
2023-03-01T20:49:08.504Z,89.90
2023-03-01T20:51:36.853Z,89.80
2023-03-01T20:54:07.186Z,89.70
2023-03-01T20:56:38.190Z,89.60
2023-03-01T20:59:15.980Z,89.90
2023-03-01T21:01:45.731Z,89.80
2023-03-01T21:04:14.293Z,90.00
2023-03-01T21:06:42.959Z,89.30
2023-03-01T21:09:13.873Z,89.10
2023-03-01T21:11:42.265Z,90.10
2023-03-01T21:14:12.512Z,90.10
2023-03-01T21:16:40.867Z,90.60
2023-03-01T21:19:11.033Z,90.30
2023-03-01T21:21:39.451Z,90.50
2023-03-01T21:24:10.232Z,90.20
2023-03-01T21:26:39.254Z,90.50
2023-03-01T21:29:07.556Z,90.50
2023-03-01T21:31:39.867Z,90.40
2023-03-01T21:34:08.433Z,90.60
2023-03-01T21:36:41.248Z,90.00
2023-03-01T21:39:09.617Z,90.50
2023-03-01T21:41:39.248Z,90.20
2023-03-01T21:44:08.889Z,90.60
2023-03-01T21:46:40.441Z,90.60
2023-03-01T21:49:12.540Z,90.70
2023-03-01T21:51:45.149Z,90.70
2023-03-01T21:54:15.639Z,90.60
2023-03-01T21:56:45.244Z,90.60
2023-03-01T21:59:16.383Z,90.80
2023-03-01T22:01:48.440Z,90.80
2023-03-01T22:04:18.083Z,90.60
2023-03-01T22:06:48.648Z,91.10
2023-03-01T22:09:20.830Z,90.70
2023-03-01T22:11:58.470Z,90.80
2023-03-01T22:14:27.524Z,90.80
2023-03-01T22:16:58.929Z,90.60
2023-03-01T22:19:28.630Z,90.80
2023-03-01T22:21:58.397Z,90.60
2023-03-01T22:24:27.394Z,90.60
2023-03-01T22:26:56.354Z,90.80
2023-03-01T22:29:29.593Z,90.80
2023-03-01T22:31:59.539Z,90.90
2023-03-01T22:34:28.234Z,90.60
2023-03-01T22:36:58.679Z,90.80
2023-03-01T22:39:26.983Z,90.70
2023-03-01T22:41:55.810Z,90.60
2023-03-01T22:44:25.186Z,90.80
2023-03-01T22:46:54.092Z,90.90
2023-03-01T22:49:22.777Z,90.90
2023-03-01T22:51:52.795Z,90.80
2023-03-01T22:54:22.743Z,91.00
2023-03-01T22:56:51.586Z,90.80
2023-03-01T22:59:23.654Z,90.80
2023-03-01T23:01:53.238Z,91.00
2023-03-01T23:04:23.109Z,90.90
2023-03-01T23:06:51.935Z,90.90
2023-03-01T23:09:24.767Z,91.00
2023-03-01T23:11:54.612Z,91.00
2023-03-01T23:14:22.985Z,90.90
2023-03-01T23:16:52.698Z,90.80
2023-03-01T23:19:21.380Z,91.20
2023-03-01T23:21:50.574Z,90.80
2023-03-01T23:24:23.038Z,90.90
2023-03-01T23:26:53.415Z,91.00
2023-03-01T23:29:22.658Z,91.10
2023-03-01T23:31:51.036Z,91.00
2023-03-01T23:34:20.025Z,90.80
2023-03-01T23:36:48.425Z,90.80
2023-03-01T23:39:17.051Z,90.80
2023-03-01T23:41:47.052Z,90.90
2023-03-01T23:44:18.157Z,91.00
2023-03-01T23:46:48.496Z,91.10
2023-03-01T23:49:19.897Z,91.00
2023-03-01T23:51:48.921Z,91.00
2023-03-01T23:54:21.898Z,91.10
2023-03-01T23:56:51.681Z,91.20
2023-03-01T23:59:22.865Z,90.90
